sensor_id;sensor_type;location;lat;lon;timestamp;P1;durP1;ratioP1;P2;durP2;ratioP2
53931;SDS011;39844;52.496;13.482;2023-02-15T00:00:09;10.53;;;5.30;;
53931;SDS011;39844;52.496;13.482;2023-02-15T00:02:34;12.43;;;6.87;;
53931;SDS011;39844;52.496;13.482;2023-02-15T00:05:00;9.83;;;5.53;;
53931;SDS011;39844;52.496;13.482;2023-02-15T00:07:25;8.33;;;4.77;;
53931;SDS011;39844;52.496;13.482;2023-02-15T00:09:50;15.10;;;7.13;;
53931;SDS011;39844;52.496;13.482;2023-02-15T00:12:16;8.30;;;6.17;;
53931;SDS011;39844;52.496;13.482;2023-02-15T00:14:41;14.40;;;7.80;;
53931;SDS011;39844;52.496;13.482;2023-02-15T00:17:06;10.30;;;6.03;;
53931;SDS011;39844;52.496;13.482;2023-02-15T00:19:31;10.50;;;6.20;;
53931;SDS011;39844;52.496;13.482;2023-02-15T00:21:57;14.97;;;7.73;;
53931;SDS011;39844;52.496;13.482;2023-02-15T00:24:22;12.80;;;7.87;;
53931;SDS011;39844;52.496;13.482;2023-02-15T00:26:48;14.00;;;7.27;;
53931;SDS011;39844;52.496;13.482;2023-02-15T00:29:14;17.20;;;7.23;;
53931;SDS011;39844;52.496;13.482;2023-02-15T00:31:40;15.57;;;7.43;;
53931;SDS011;39844;52.496;13.482;2023-02-15T00:34:07;16.70;;;7.80;;
53931;SDS011;39844;52.496;13.482;2023-02-15T00:36:37;13.43;;;8.43;;
53931;SDS011;39844;52.496;13.482;2023-02-15T00:39:03;11.97;;;6.27;;
53931;SDS011;39844;52.496;13.482;2023-02-15T00:41:28;11.23;;;6.10;;
53931;SDS011;39844;52.496;13.482;2023-02-15T00:43:53;18.07;;;9.47;;
53931;SDS011;39844;52.496;13.482;2023-02-15T00:46:19;14.97;;;8.60;;
53931;SDS011;39844;52.496;13.482;2023-02-15T00:48:44;14.97;;;8.17;;
53931;SDS011;39844;52.496;13.482;2023-02-15T00:51:09;16.60;;;8.93;;
53931;SDS011;39844;52.496;13.482;2023-02-15T00:53:35;11.17;;;6.97;;
53931;SDS011;39844;52.496;13.482;2023-02-15T00:56:00;14.90;;;6.83;;
53931;SDS011;39844;52.496;13.482;2023-02-15T00:58:25;11.07;;;6.50;;
53931;SDS011;39844;52.496;13.482;2023-02-15T01:00:51;14.63;;;8.03;;
53931;SDS011;39844;52.496;13.482;2023-02-15T01:03:17;16.03;;;8.93;;
53931;SDS011;39844;52.496;13.482;2023-02-15T01:05:44;18.37;;;7.70;;
53931;SDS011;39844;52.496;13.482;2023-02-15T01:08:09;20.07;;;9.90;;
53931;SDS011;39844;52.496;13.482;2023-02-15T01:10:35;17.93;;;8.43;;
53931;SDS011;39844;52.496;13.482;2023-02-15T01:13:01;17.23;;;8.87;;
53931;SDS011;39844;52.496;13.482;2023-02-15T01:15:27;16.53;;;9.07;;
53931;SDS011;39844;52.496;13.482;2023-02-15T01:17:52;22.43;;;10.17;;
53931;SDS011;39844;52.496;13.482;2023-02-15T01:20:19;16.60;;;8.30;;
53931;SDS011;39844;52.496;13.482;2023-02-15T01:22:49;16.03;;;8.60;;
53931;SDS011;39844;52.496;13.482;2023-02-15T01:25:15;14.53;;;8.37;;
53931;SDS011;39844;52.496;13.482;2023-02-15T01:27:41;13.43;;;7.17;;
53931;SDS011;39844;52.496;13.482;2023-02-15T01:30:06;14.27;;;7.43;;
53931;SDS011;39844;52.496;13.482;2023-02-15T01:32:32;16.20;;;9.00;;
53931;SDS011;39844;52.496;13.482;2023-02-15T01:34:57;12.40;;;7.63;;
53931;SDS011;39844;52.496;13.482;2023-02-15T01:37:22;10.43;;;5.77;;
53931;SDS011;39844;52.496;13.482;2023-02-15T01:39:48;14.37;;;8.40;;
53931;SDS011;39844;52.496;13.482;2023-02-15T01:42:13;13.20;;;8.17;;
53931;SDS011;39844;52.496;13.482;2023-02-15T01:45:02;16.03;;;9.63;;
53931;SDS011;39844;52.496;13.482;2023-02-15T01:47:34;9.53;;;6.70;;
53931;SDS011;39844;52.496;13.482;2023-02-15T01:50:23;23.23;;;9.73;;
53931;SDS011;39844;52.496;13.482;2023-02-15T01:55:23;15.47;;;8.30;;
53931;SDS011;39844;52.496;13.482;2023-02-15T01:57:53;12.27;;;7.67;;
53931;SDS011;39844;52.496;13.482;2023-02-15T02:00:19;15.07;;;8.33;;
53931;SDS011;39844;52.496;13.482;2023-02-15T02:02:46;19.70;;;9.47;;
53931;SDS011;39844;52.496;13.482;2023-02-15T02:05:31;16.70;;;7.57;;
53931;SDS011;39844;52.496;13.482;2023-02-15T02:07:58;15.87;;;8.40;;
53931;SDS011;39844;52.496;13.482;2023-02-15T02:10:25;12.13;;;7.50;;
53931;SDS011;39844;52.496;13.482;2023-02-15T02:12:53;13.43;;;7.33;;
53931;SDS011;39844;52.496;13.482;2023-02-15T02:21:26;16.53;;;9.23;;
53931;SDS011;39844;52.496;13.482;2023-02-15T02:37:36;20.83;;;8.90;;
53931;SDS011;39844;52.496;13.482;2023-02-15T02:40:13;17.37;;;8.67;;
53931;SDS011;39844;52.496;13.482;2023-02-15T02:42:49;19.27;;;8.77;;
53931;SDS011;39844;52.496;13.482;2023-02-15T02:45:40;19.73;;;9.90;;
53931;SDS011;39844;52.496;13.482;2023-02-15T02:48:13;18.37;;;9.63;;
53931;SDS011;39844;52.496;13.482;2023-02-15T02:50:43;22.77;;;11.33;;
53931;SDS011;39844;52.496;13.482;2023-02-15T02:53:08;24.30;;;12.13;;
53931;SDS011;39844;52.496;13.482;2023-02-15T02:55:35;30.43;;;12.83;;
53931;SDS011;39844;52.496;13.482;2023-02-15T03:00:31;20.07;;;10.60;;
53931;SDS011;39844;52.496;13.482;2023-02-15T03:03:03;16.93;;;8.03;;
53931;SDS011;39844;52.496;13.482;2023-02-15T03:05:35;29.57;;;11.20;;
53931;SDS011;39844;52.496;13.482;2023-02-15T03:08:05;22.83;;;9.60;;
53931;SDS011;39844;52.496;13.482;2023-02-15T03:10:32;28.57;;;11.67;;
53931;SDS011;39844;52.496;13.482;2023-02-15T03:12:59;21.93;;;9.43;;
53931;SDS011;39844;52.496;13.482;2023-02-15T03:15:27;23.90;;;9.93;;
53931;SDS011;39844;52.496;13.482;2023-02-15T03:18:02;28.80;;;12.63;;
53931;SDS011;39844;52.496;13.482;2023-02-15T03:20:29;18.37;;;10.10;;
53931;SDS011;39844;52.496;13.482;2023-02-15T03:22:59;26.73;;;12.57;;
53931;SDS011;39844;52.496;13.482;2023-02-15T03:25:39;30.77;;;14.17;;
53931;SDS011;39844;52.496;13.482;2023-02-15T03:28:21;26.37;;;11.20;;
53931;SDS011;39844;52.496;13.482;2023-02-15T03:30:53;25.33;;;11.17;;
53931;SDS011;39844;52.496;13.482;2023-02-15T03:33:23;26.23;;;11.70;;
53931;SDS011;39844;52.496;13.482;2023-02-15T03:38:42;23.40;;;11.53;;
53931;SDS011;39844;52.496;13.482;2023-02-15T03:41:12;23.57;;;11.23;;
53931;SDS011;39844;52.496;13.482;2023-02-15T03:51:38;27.87;;;11.37;;
53931;SDS011;39844;52.496;13.482;2023-02-15T03:54:09;21.10;;;9.17;;
53931;SDS011;39844;52.496;13.482;2023-02-15T03:56:40;29.43;;;10.90;;
53931;SDS011;39844;52.496;13.482;2023-02-15T03:59:07;26.33;;;12.13;;
53931;SDS011;39844;52.496;13.482;2023-02-15T04:04:20;29.00;;;11.83;;
53931;SDS011;39844;52.496;13.482;2023-02-15T04:06:48;25.53;;;11.13;;
53931;SDS011;39844;52.496;13.482;2023-02-15T04:09:13;25.10;;;11.77;;
53931;SDS011;39844;52.496;13.482;2023-02-15T04:11:39;29.10;;;11.53;;
53931;SDS011;39844;52.496;13.482;2023-02-15T04:14:04;26.90;;;12.20;;
53931;SDS011;39844;52.496;13.482;2023-02-15T04:16:30;28.00;;;11.87;;
53931;SDS011;39844;52.496;13.482;2023-02-15T04:18:55;24.07;;;11.37;;
53931;SDS011;39844;52.496;13.482;2023-02-15T04:21:21;26.30;;;10.60;;
53931;SDS011;39844;52.496;13.482;2023-02-15T04:23:47;28.63;;;10.90;;
53931;SDS011;39844;52.496;13.482;2023-02-15T04:26:12;39.73;;;11.63;;
53931;SDS011;39844;52.496;13.482;2023-02-15T04:28:38;22.03;;;10.93;;
53931;SDS011;39844;52.496;13.482;2023-02-15T04:31:03;26.33;;;10.07;;
53931;SDS011;39844;52.496;13.482;2023-02-15T04:33:28;23.03;;;11.07;;
53931;SDS011;39844;52.496;13.482;2023-02-15T04:35:54;17.50;;;9.23;;
53931;SDS011;39844;52.496;13.482;2023-02-15T04:38:19;22.77;;;10.60;;
53931;SDS011;39844;52.496;13.482;2023-02-15T04:40:44;25.47;;;10.20;;
53931;SDS011;39844;52.496;13.482;2023-02-15T04:43:14;26.47;;;11.03;;
53931;SDS011;39844;52.496;13.482;2023-02-15T04:45:40;18.17;;;9.63;;
53931;SDS011;39844;52.496;13.482;2023-02-15T04:48:05;22.30;;;8.83;;
53931;SDS011;39844;52.496;13.482;2023-02-15T04:50:30;17.93;;;9.57;;
53931;SDS011;39844;52.496;13.482;2023-02-15T04:52:55;24.97;;;10.80;;
53931;SDS011;39844;52.496;13.482;2023-02-15T04:55:21;19.60;;;10.03;;
53931;SDS011;39844;52.496;13.482;2023-02-15T04:57:46;17.53;;;9.67;;
53931;SDS011;39844;52.496;13.482;2023-02-15T05:00:11;19.13;;;9.60;;
53931;SDS011;39844;52.496;13.482;2023-02-15T05:02:37;18.93;;;9.53;;
53931;SDS011;39844;52.496;13.482;2023-02-15T05:05:03;21.53;;;10.67;;
53931;SDS011;39844;52.496;13.482;2023-02-15T05:07:28;23.33;;;10.73;;
53931;SDS011;39844;52.496;13.482;2023-02-15T05:09:53;26.13;;;10.73;;
53931;SDS011;39844;52.496;13.482;2023-02-15T05:12:19;24.60;;;10.53;;
53931;SDS011;39844;52.496;13.482;2023-02-15T05:14:44;21.33;;;9.13;;
53931;SDS011;39844;52.496;13.482;2023-02-15T05:17:09;28.03;;;11.63;;
53931;SDS011;39844;52.496;13.482;2023-02-15T05:19:35;21.63;;;11.27;;
53931;SDS011;39844;52.496;13.482;2023-02-15T05:22:00;22.77;;;11.07;;
53931;SDS011;39844;52.496;13.482;2023-02-15T05:24:25;22.93;;;10.40;;
53931;SDS011;39844;52.496;13.482;2023-02-15T05:26:51;20.67;;;10.23;;
53931;SDS011;39844;52.496;13.482;2023-02-15T05:29:16;22.83;;;10.73;;
53931;SDS011;39844;52.496;13.482;2023-02-15T05:31:41;23.00;;;10.77;;
53931;SDS011;39844;52.496;13.482;2023-02-15T05:34:06;22.63;;;10.43;;
53931;SDS011;39844;52.496;13.482;2023-02-15T05:36:32;20.10;;;9.10;;
53931;SDS011;39844;52.496;13.482;2023-02-15T05:38:57;21.60;;;8.97;;
53931;SDS011;39844;52.496;13.482;2023-02-15T05:41:22;23.63;;;11.20;;
53931;SDS011;39844;52.496;13.482;2023-02-15T05:43:48;20.77;;;9.13;;
53931;SDS011;39844;52.496;13.482;2023-02-15T05:46:13;25.70;;;11.77;;
53931;SDS011;39844;52.496;13.482;2023-02-15T05:48:38;28.27;;;10.73;;
53931;SDS011;39844;52.496;13.482;2023-02-15T05:51:05;20.73;;;10.23;;
53931;SDS011;39844;52.496;13.482;2023-02-15T05:53:40;13.97;;;7.70;;
53931;SDS011;39844;52.496;13.482;2023-02-15T05:56:06;19.57;;;9.90;;
53931;SDS011;39844;52.496;13.482;2023-02-15T05:58:34;18.20;;;11.10;;
53931;SDS011;39844;52.496;13.482;2023-02-15T06:01:14;26.97;;;12.27;;
53931;SDS011;39844;52.496;13.482;2023-02-15T06:03:41;18.67;;;10.43;;
53931;SDS011;39844;52.496;13.482;2023-02-15T06:06:07;26.70;;;11.10;;
53931;SDS011;39844;52.496;13.482;2023-02-15T06:08:33;33.47;;;12.53;;
53931;SDS011;39844;52.496;13.482;2023-02-15T06:10:59;27.63;;;12.67;;
53931;SDS011;39844;52.496;13.482;2023-02-15T06:13:25;21.90;;;10.57;;
53931;SDS011;39844;52.496;13.482;2023-02-15T06:15:51;23.23;;;11.27;;
53931;SDS011;39844;52.496;13.482;2023-02-15T06:18:16;22.60;;;10.60;;
53931;SDS011;39844;52.496;13.482;2023-02-15T06:20:41;24.60;;;10.83;;
53931;SDS011;39844;52.496;13.482;2023-02-15T06:23:07;19.03;;;10.27;;
53931;SDS011;39844;52.496;13.482;2023-02-15T06:25:32;31.10;;;12.33;;
53931;SDS011;39844;52.496;13.482;2023-02-15T06:27:57;29.37;;;11.70;;
53931;SDS011;39844;52.496;13.482;2023-02-15T06:30:22;20.70;;;10.53;;
53931;SDS011;39844;52.496;13.482;2023-02-15T06:32:48;17.10;;;9.33;;
53931;SDS011;39844;52.496;13.482;2023-02-15T06:35:13;21.57;;;9.33;;
53931;SDS011;39844;52.496;13.482;2023-02-15T06:37:39;21.47;;;9.87;;
53931;SDS011;39844;52.496;13.482;2023-02-15T06:40:04;15.73;;;9.10;;
53931;SDS011;39844;52.496;13.482;2023-02-15T06:42:30;18.47;;;9.53;;
53931;SDS011;39844;52.496;13.482;2023-02-15T06:44:58;18.90;;;8.63;;
53931;SDS011;39844;52.496;13.482;2023-02-15T06:47:23;14.03;;;8.30;;
53931;SDS011;39844;52.496;13.482;2023-02-15T06:49:48;16.90;;;9.87;;
53931;SDS011;39844;52.496;13.482;2023-02-15T06:52:14;15.70;;;8.60;;
53931;SDS011;39844;52.496;13.482;2023-02-15T06:54:39;20.10;;;9.20;;
53931;SDS011;39844;52.496;13.482;2023-02-15T06:57:04;17.83;;;9.37;;
53931;SDS011;39844;52.496;13.482;2023-02-15T06:59:29;16.27;;;8.27;;
53931;SDS011;39844;52.496;13.482;2023-02-15T07:01:55;19.43;;;8.97;;
53931;SDS011;39844;52.496;13.482;2023-02-15T07:04:20;22.67;;;10.37;;
53931;SDS011;39844;52.496;13.482;2023-02-15T07:06:45;21.67;;;9.03;;
53931;SDS011;39844;52.496;13.482;2023-02-15T07:09:11;13.97;;;7.70;;
53931;SDS011;39844;52.496;13.482;2023-02-15T07:11:36;17.43;;;9.27;;
53931;SDS011;39844;52.496;13.482;2023-02-15T07:14:02;17.40;;;8.80;;
53931;SDS011;39844;52.496;13.482;2023-02-15T07:16:27;15.80;;;8.60;;
53931;SDS011;39844;52.496;13.482;2023-02-15T07:18:52;16.83;;;9.30;;
53931;SDS011;39844;52.496;13.482;2023-02-15T07:21:18;18.40;;;8.80;;
53931;SDS011;39844;52.496;13.482;2023-02-15T07:23:43;12.70;;;8.10;;
53931;SDS011;39844;52.496;13.482;2023-02-15T07:26:08;17.57;;;8.93;;
53931;SDS011;39844;52.496;13.482;2023-02-15T07:28:34;16.70;;;8.63;;
53931;SDS011;39844;52.496;13.482;2023-02-15T07:31:03;20.33;;;9.07;;
53931;SDS011;39844;52.496;13.482;2023-02-15T07:33:32;13.27;;;7.90;;
53931;SDS011;39844;52.496;13.482;2023-02-15T07:35:59;12.80;;;7.10;;
53931;SDS011;39844;52.496;13.482;2023-02-15T07:38:27;15.10;;;7.93;;
53931;SDS011;39844;52.496;13.482;2023-02-15T07:40:58;16.87;;;7.50;;
53931;SDS011;39844;52.496;13.482;2023-02-15T07:43:27;9.97;;;6.93;;
53931;SDS011;39844;52.496;13.482;2023-02-15T07:45:53;13.30;;;7.23;;
53931;SDS011;39844;52.496;13.482;2023-02-15T07:48:19;15.17;;;6.53;;
53931;SDS011;39844;52.496;13.482;2023-02-15T07:50:44;15.97;;;7.87;;
53931;SDS011;39844;52.496;13.482;2023-02-15T07:53:09;12.97;;;7.20;;
53931;SDS011;39844;52.496;13.482;2023-02-15T07:55:35;16.70;;;7.80;;
53931;SDS011;39844;52.496;13.482;2023-02-15T07:58:00;13.47;;;8.20;;
53931;SDS011;39844;52.496;13.482;2023-02-15T08:00:25;14.30;;;7.63;;
53931;SDS011;39844;52.496;13.482;2023-02-15T08:02:51;14.10;;;7.83;;
53931;SDS011;39844;52.496;13.482;2023-02-15T08:05:18;20.83;;;9.40;;
53931;SDS011;39844;52.496;13.482;2023-02-15T08:07:44;12.10;;;7.47;;
53931;SDS011;39844;52.496;13.482;2023-02-15T08:10:09;15.20;;;8.73;;
53931;SDS011;39844;52.496;13.482;2023-02-15T08:12:34;17.67;;;9.40;;
53931;SDS011;39844;52.496;13.482;2023-02-15T08:14:59;17.20;;;9.83;;
53931;SDS011;39844;52.496;13.482;2023-02-15T08:17:25;19.03;;;8.70;;
53931;SDS011;39844;52.496;13.482;2023-02-15T08:19:50;12.07;;;7.53;;
53931;SDS011;39844;52.496;13.482;2023-02-15T08:22:15;20.00;;;7.57;;
53931;SDS011;39844;52.496;13.482;2023-02-15T08:24:41;12.50;;;8.77;;
53931;SDS011;39844;52.496;13.482;2023-02-15T08:27:07;14.63;;;7.87;;
53931;SDS011;39844;52.496;13.482;2023-02-15T08:29:35;14.63;;;8.00;;
53931;SDS011;39844;52.496;13.482;2023-02-15T08:32:03;17.53;;;7.50;;
53931;SDS011;39844;52.496;13.482;2023-02-15T08:34:31;15.20;;;8.30;;
53931;SDS011;39844;52.496;13.482;2023-02-15T08:37:02;19.87;;;8.77;;
53931;SDS011;39844;52.496;13.482;2023-02-15T08:39:28;17.33;;;8.63;;
53931;SDS011;39844;52.496;13.482;2023-02-15T08:41:53;16.63;;;8.30;;
53931;SDS011;39844;52.496;13.482;2023-02-15T08:44:18;17.00;;;7.93;;
53931;SDS011;39844;52.496;13.482;2023-02-15T08:46:45;22.93;;;8.87;;
53931;SDS011;39844;52.496;13.482;2023-02-15T08:49:12;17.50;;;9.43;;
53931;SDS011;39844;52.496;13.482;2023-02-15T08:51:40;18.67;;;8.97;;
53931;SDS011;39844;52.496;13.482;2023-02-15T08:54:07;22.83;;;9.17;;
53931;SDS011;39844;52.496;13.482;2023-02-15T08:56:36;17.90;;;7.47;;
53931;SDS011;39844;52.496;13.482;2023-02-15T08:59:03;13.03;;;8.03;;
53931;SDS011;39844;52.496;13.482;2023-02-15T09:01:29;20.93;;;8.97;;
53931;SDS011;39844;52.496;13.482;2023-02-15T09:03:58;15.73;;;7.40;;
53931;SDS011;39844;52.496;13.482;2023-02-15T09:06:25;20.17;;;9.03;;
53931;SDS011;39844;52.496;13.482;2023-02-15T09:08:51;15.60;;;7.60;;
53931;SDS011;39844;52.496;13.482;2023-02-15T09:11:21;16.73;;;7.40;;
53931;SDS011;39844;52.496;13.482;2023-02-15T09:13:55;17.07;;;8.60;;
53931;SDS011;39844;52.496;13.482;2023-02-15T09:16:29;14.43;;;7.97;;
53931;SDS011;39844;52.496;13.482;2023-02-15T09:18:55;16.77;;;8.03;;
53931;SDS011;39844;52.496;13.482;2023-02-15T09:21:22;14.70;;;8.13;;
53931;SDS011;39844;52.496;13.482;2023-02-15T09:23:48;19.90;;;8.53;;
53931;SDS011;39844;52.496;13.482;2023-02-15T09:26:16;17.17;;;8.33;;
53931;SDS011;39844;52.496;13.482;2023-02-15T09:28:43;17.87;;;8.47;;
53931;SDS011;39844;52.496;13.482;2023-02-15T09:33:35;12.53;;;7.87;;
53931;SDS011;39844;52.496;13.482;2023-02-15T09:36:03;15.30;;;7.63;;
53931;SDS011;39844;52.496;13.482;2023-02-15T09:38:29;16.70;;;7.77;;
53931;SDS011;39844;52.496;13.482;2023-02-15T09:41:39;20.43;;;7.90;;
53931;SDS011;39844;52.496;13.482;2023-02-15T09:44:09;18.83;;;8.10;;
53931;SDS011;39844;52.496;13.482;2023-02-15T09:49:06;19.43;;;9.10;;
53931;SDS011;39844;52.496;13.482;2023-02-15T09:51:50;17.50;;;8.17;;
53931;SDS011;39844;52.496;13.482;2023-02-15T09:59:59;16.13;;;8.67;;
53931;SDS011;39844;52.496;13.482;2023-02-15T10:05:11;16.30;;;8.60;;
53931;SDS011;39844;52.496;13.482;2023-02-15T10:08:05;12.10;;;7.57;;
53931;SDS011;39844;52.496;13.482;2023-02-15T10:16:10;16.97;;;7.77;;
53931;SDS011;39844;52.496;13.482;2023-02-15T10:18:52;14.80;;;7.33;;
53931;SDS011;39844;52.496;13.482;2023-02-15T10:21:29;16.93;;;8.20;;
53931;SDS011;39844;52.496;13.482;2023-02-15T10:29:08;13.93;;;8.47;;
53931;SDS011;39844;52.496;13.482;2023-02-15T10:31:51;19.97;;;8.27;;
53931;SDS011;39844;52.496;13.482;2023-02-15T10:34:39;11.33;;;6.57;;
53931;SDS011;39844;52.496;13.482;2023-02-15T10:59:04;14.20;;;7.17;;
53931;SDS011;39844;52.496;13.482;2023-02-15T11:01:51;13.77;;;7.10;;
53931;SDS011;39844;52.496;13.482;2023-02-15T11:07:19;15.37;;;6.83;;
53931;SDS011;39844;52.496;13.482;2023-02-15T11:09:49;17.17;;;7.50;;
53931;SDS011;39844;52.496;13.482;2023-02-15T11:12:20;15.70;;;7.63;;
53931;SDS011;39844;52.496;13.482;2023-02-15T11:14:51;15.10;;;7.63;;
53931;SDS011;39844;52.496;13.482;2023-02-15T11:17:36;16.33;;;7.47;;
53931;SDS011;39844;52.496;13.482;2023-02-15T11:20:25;14.77;;;7.57;;
53931;SDS011;39844;52.496;13.482;2023-02-15T11:23:00;12.90;;;7.23;;
53931;SDS011;39844;52.496;13.482;2023-02-15T11:25:30;15.60;;;7.10;;
53931;SDS011;39844;52.496;13.482;2023-02-15T11:27:58;16.83;;;7.60;;
53931;SDS011;39844;52.496;13.482;2023-02-15T11:30:26;12.20;;;7.17;;
53931;SDS011;39844;52.496;13.482;2023-02-15T11:33:03;14.50;;;7.27;;
53931;SDS011;39844;52.496;13.482;2023-02-15T11:35:37;12.50;;;6.53;;
53931;SDS011;39844;52.496;13.482;2023-02-15T11:38:14;11.63;;;6.37;;
53931;SDS011;39844;52.496;13.482;2023-02-15T11:40:48;13.43;;;6.77;;
53931;SDS011;39844;52.496;13.482;2023-02-15T11:43:17;13.50;;;7.23;;
53931;SDS011;39844;52.496;13.482;2023-02-15T11:45:45;13.20;;;5.97;;
53931;SDS011;39844;52.496;13.482;2023-02-15T11:48:11;12.23;;;6.37;;
53931;SDS011;39844;52.496;13.482;2023-02-15T11:50:38;10.43;;;6.47;;
53931;SDS011;39844;52.496;13.482;2023-02-15T11:53:06;15.50;;;6.67;;
53931;SDS011;39844;52.496;13.482;2023-02-15T11:55:36;13.30;;;6.77;;
53931;SDS011;39844;52.496;13.482;2023-02-15T12:01:08;9.33;;;5.73;;
53931;SDS011;39844;52.496;13.482;2023-02-15T12:03:54;12.60;;;6.37;;
53931;SDS011;39844;52.496;13.482;2023-02-15T12:08:59;11.17;;;6.17;;
53931;SDS011;39844;52.496;13.482;2023-02-15T12:11:31;10.03;;;5.43;;
53931;SDS011;39844;52.496;13.482;2023-02-15T12:14:01;11.57;;;6.37;;
53931;SDS011;39844;52.496;13.482;2023-02-15T12:16:29;13.03;;;6.23;;
53931;SDS011;39844;52.496;13.482;2023-02-15T12:19:04;10.30;;;6.07;;
53931;SDS011;39844;52.496;13.482;2023-02-15T12:21:31;14.87;;;7.40;;
53931;SDS011;39844;52.496;13.482;2023-02-15T12:24:03;18.27;;;8.50;;
53931;SDS011;39844;52.496;13.482;2023-02-15T12:26:39;14.07;;;7.17;;
53931;SDS011;39844;52.496;13.482;2023-02-15T12:29:17;12.30;;;7.27;;
53931;SDS011;39844;52.496;13.482;2023-02-15T12:31:50;14.00;;;8.30;;
53931;SDS011;39844;52.496;13.482;2023-02-15T12:36:51;14.63;;;7.30;;
53931;SDS011;39844;52.496;13.482;2023-02-15T12:39:21;15.23;;;7.57;;
53931;SDS011;39844;52.496;13.482;2023-02-15T12:44:21;14.53;;;7.57;;
53931;SDS011;39844;52.496;13.482;2023-02-15T12:49:42;12.77;;;7.07;;
53931;SDS011;39844;52.496;13.482;2023-02-15T12:54:42;13.67;;;7.97;;
53931;SDS011;39844;52.496;13.482;2023-02-15T12:59:48;14.37;;;7.30;;
53931;SDS011;39844;52.496;13.482;2023-02-15T13:02:21;13.87;;;8.40;;
53931;SDS011;39844;52.496;13.482;2023-02-15T13:04:50;13.23;;;7.80;;
53931;SDS011;39844;52.496;13.482;2023-02-15T13:07:17;16.23;;;8.03;;
53931;SDS011;39844;52.496;13.482;2023-02-15T13:09:42;13.20;;;7.37;;
53931;SDS011;39844;52.496;13.482;2023-02-15T13:14:34;12.77;;;7.47;;
53931;SDS011;39844;52.496;13.482;2023-02-15T13:17:00;9.87;;;6.27;;
53931;SDS011;39844;52.496;13.482;2023-02-15T13:22:00;14.43;;;7.43;;
53931;SDS011;39844;52.496;13.482;2023-02-15T13:24:39;12.03;;;7.03;;
53931;SDS011;39844;52.496;13.482;2023-02-15T13:27:09;13.40;;;6.93;;
53931;SDS011;39844;52.496;13.482;2023-02-15T13:29:39;13.43;;;7.43;;
53931;SDS011;39844;52.496;13.482;2023-02-15T13:32:14;14.47;;;7.47;;
53931;SDS011;39844;52.496;13.482;2023-02-15T13:34:40;10.80;;;6.87;;
53931;SDS011;39844;52.496;13.482;2023-02-15T13:42:18;11.43;;;6.53;;
53931;SDS011;39844;52.496;13.482;2023-02-15T13:47:59;11.43;;;5.87;;
53931;SDS011;39844;52.496;13.482;2023-02-15T13:56:39;9.50;;;6.00;;
53931;SDS011;39844;52.496;13.482;2023-02-15T14:01:49;11.07;;;6.63;;
53931;SDS011;39844;52.496;13.482;2023-02-15T14:16:00;9.80;;;6.57;;
53931;SDS011;39844;52.496;13.482;2023-02-15T14:21:42;12.00;;;7.13;;
53931;SDS011;39844;52.496;13.482;2023-02-15T14:27:09;11.60;;;6.90;;
53931;SDS011;39844;52.496;13.482;2023-02-15T14:30:03;11.83;;;7.00;;
53931;SDS011;39844;52.496;13.482;2023-02-15T14:32:53;9.50;;;6.10;;
53931;SDS011;39844;52.496;13.482;2023-02-15T14:35:26;12.13;;;6.53;;
53931;SDS011;39844;52.496;13.482;2023-02-15T14:46:19;11.00;;;6.33;;
53931;SDS011;39844;52.496;13.482;2023-02-15T14:52:14;9.33;;;6.27;;
53931;SDS011;39844;52.496;13.482;2023-02-15T14:56:45;10.73;;;6.03;;
53931;SDS011;39844;52.496;13.482;2023-02-15T15:01:58;11.13;;;6.77;;
53931;SDS011;39844;52.496;13.482;2023-02-15T15:07:14;10.50;;;6.47;;
53931;SDS011;39844;52.496;13.482;2023-02-15T15:09:57;7.77;;;5.23;;
53931;SDS011;39844;52.496;13.482;2023-02-15T15:14:51;8.47;;;5.97;;
53931;SDS011;39844;52.496;13.482;2023-02-15T15:19:59;10.67;;;6.03;;
53931;SDS011;39844;52.496;13.482;2023-02-15T15:22:27;7.90;;;5.80;;
53931;SDS011;39844;52.496;13.482;2023-02-15T15:25:01;10.80;;;6.00;;
53931;SDS011;39844;52.496;13.482;2023-02-15T15:32:39;8.77;;;5.97;;
53931;SDS011;39844;52.496;13.482;2023-02-15T15:49:38;9.97;;;6.50;;
53931;SDS011;39844;52.496;13.482;2023-02-15T15:52:15;11.73;;;6.43;;
53931;SDS011;39844;52.496;13.482;2023-02-15T15:54:46;11.30;;;6.23;;
53931;SDS011;39844;52.496;13.482;2023-02-15T15:57:22;11.37;;;5.67;;
53931;SDS011;39844;52.496;13.482;2023-02-15T15:59:55;10.07;;;6.33;;
53931;SDS011;39844;52.496;13.482;2023-02-15T16:02:21;9.43;;;5.57;;
53931;SDS011;39844;52.496;13.482;2023-02-15T16:04:47;9.37;;;5.67;;
53931;SDS011;39844;52.496;13.482;2023-02-15T16:07:13;8.47;;;5.47;;
53931;SDS011;39844;52.496;13.482;2023-02-15T16:09:43;9.80;;;5.67;;
53931;SDS011;39844;52.496;13.482;2023-02-15T16:12:38;8.53;;;5.07;;
53931;SDS011;39844;52.496;13.482;2023-02-15T16:15:13;10.07;;;5.30;;
53931;SDS011;39844;52.496;13.482;2023-02-15T16:17:41;5.13;;;4.23;;
53931;SDS011;39844;52.496;13.482;2023-02-15T16:20:17;7.40;;;4.90;;
53931;SDS011;39844;52.496;13.482;2023-02-15T16:22:46;8.23;;;5.20;;
53931;SDS011;39844;52.496;13.482;2023-02-15T16:25:31;14.53;;;6.00;;
53931;SDS011;39844;52.496;13.482;2023-02-15T16:28:15;6.57;;;4.70;;
53931;SDS011;39844;52.496;13.482;2023-02-15T16:30:41;7.73;;;4.90;;
53931;SDS011;39844;52.496;13.482;2023-02-15T16:33:10;9.80;;;5.20;;
53931;SDS011;39844;52.496;13.482;2023-02-15T16:35:40;7.47;;;5.30;;
53931;SDS011;39844;52.496;13.482;2023-02-15T16:38:21;7.13;;;5.60;;
53931;SDS011;39844;52.496;13.482;2023-02-15T16:41:07;6.27;;;4.50;;
53931;SDS011;39844;52.496;13.482;2023-02-15T16:43:48;8.63;;;4.93;;
53931;SDS011;39844;52.496;13.482;2023-02-15T16:46:24;8.17;;;4.53;;
53931;SDS011;39844;52.496;13.482;2023-02-15T16:48:54;8.03;;;4.70;;
53931;SDS011;39844;52.496;13.482;2023-02-15T16:51:24;9.83;;;4.87;;
53931;SDS011;39844;52.496;13.482;2023-02-15T16:53:55;7.13;;;4.40;;
53931;SDS011;39844;52.496;13.482;2023-02-15T16:56:26;8.90;;;5.17;;
53931;SDS011;39844;52.496;13.482;2023-02-15T16:58:54;8.00;;;4.60;;
53931;SDS011;39844;52.496;13.482;2023-02-15T17:01:21;7.93;;;4.87;;
53931;SDS011;39844;52.496;13.482;2023-02-15T17:03:49;6.50;;;4.73;;
53931;SDS011;39844;52.496;13.482;2023-02-15T17:06:23;5.97;;;4.07;;
53931;SDS011;39844;52.496;13.482;2023-02-15T17:08:50;5.73;;;4.03;;
53931;SDS011;39844;52.496;13.482;2023-02-15T17:11:17;5.40;;;4.00;;
53931;SDS011;39844;52.496;13.482;2023-02-15T17:16:31;5.50;;;3.37;;
53931;SDS011;39844;52.496;13.482;2023-02-15T17:19:02;5.97;;;4.37;;
53931;SDS011;39844;52.496;13.482;2023-02-15T17:21:37;5.17;;;3.67;;
53931;SDS011;39844;52.496;13.482;2023-02-15T17:24:06;6.57;;;4.03;;
53931;SDS011;39844;52.496;13.482;2023-02-15T17:26:42;8.00;;;4.60;;
53931;SDS011;39844;52.496;13.482;2023-02-15T17:29:22;7.77;;;4.73;;
53931;SDS011;39844;52.496;13.482;2023-02-15T17:31:54;11.83;;;5.87;;
53931;SDS011;39844;52.496;13.482;2023-02-15T17:37:14;7.07;;;4.63;;
53931;SDS011;39844;52.496;13.482;2023-02-15T17:40:21;7.97;;;4.60;;
53931;SDS011;39844;52.496;13.482;2023-02-15T17:42:48;5.10;;;3.50;;
53931;SDS011;39844;52.496;13.482;2023-02-15T17:45:14;6.30;;;4.23;;
53931;SDS011;39844;52.496;13.482;2023-02-15T17:47:40;10.23;;;5.60;;